sensor_id;sensor_type;location;lat;lon;timestamp;pressure;altitude;pressure_sealevel;temperature;humidity
66164;BME280;52962;51.088;3.096;2023-06-26T00:02:01;101150.50;;;22.60;100.00
66164;BME280;52962;51.088;3.096;2023-06-26T00:04:29;101162.22;;;22.56;100.00
66164;BME280;52962;51.088;3.096;2023-06-26T00:06:57;101155.03;;;22.58;100.00
66164;BME280;52962;51.088;3.096;2023-06-26T00:09:25;101153.38;;;22.52;100.00
66164;BME280;52962;51.088;3.096;2023-06-26T00:11:54;101157.00;;;22.50;100.00
66164;BME280;52962;51.088;3.096;2023-06-26T00:14:23;101154.69;;;22.35;100.00
66164;BME280;52962;51.088;3.096;2023-06-26T00:16:52;101164.44;;;22.39;100.00
66164;BME280;52962;51.088;3.096;2023-06-26T00:19:21;101153.66;;;22.40;100.00
66164;BME280;52962;51.088;3.096;2023-06-26T00:21:49;101157.22;;;22.41;100.00
66164;BME280;52962;51.088;3.096;2023-06-26T00:24:17;101152.91;;;22.34;100.00
66164;BME280;52962;51.088;3.096;2023-06-26T00:26:46;101160.94;;;22.35;100.00
66164;BME280;52962;51.088;3.096;2023-06-26T00:29:15;101164.59;;;22.31;100.00
66164;BME280;52962;51.088;3.096;2023-06-26T00:31:44;101162.09;;;22.24;100.00
66164;BME280;52962;51.088;3.096;2023-06-26T00:34:12;101164.81;;;22.22;100.00
66164;BME280;52962;51.088;3.096;2023-06-26T00:36:41;101153.34;;;22.15;100.00
66164;BME280;52962;51.088;3.096;2023-06-26T00:39:11;101152.53;;;22.12;100.00
66164;BME280;52962;51.088;3.096;2023-06-26T00:41:40;101158.97;;;22.03;100.00
66164;BME280;52962;51.088;3.096;2023-06-26T00:44:10;101167.03;;;22.00;100.00
66164;BME280;52962;51.088;3.096;2023-06-26T00:46:39;101164.69;;;21.85;100.00
66164;BME280;52962;51.088;3.096;2023-06-26T00:49:08;101162.72;;;21.93;100.00
66164;BME280;52962;51.088;3.096;2023-06-26T00:51:38;101166.25;;;21.95;100.00
66164;BME280;52962;51.088;3.096;2023-06-26T00:54:06;101169.84;;;21.94;100.00
66164;BME280;52962;51.088;3.096;2023-06-26T00:56:35;101169.09;;;21.87;100.00
66164;BME280;52962;51.088;3.096;2023-06-26T00:59:04;101167.66;;;21.73;100.00
66164;BME280;52962;51.088;3.096;2023-06-26T01:01:32;101174.00;;;21.69;100.00
66164;BME280;52962;51.088;3.096;2023-06-26T01:04:01;101177.72;;;21.60;100.00
66164;BME280;52962;51.088;3.096;2023-06-26T01:06:32;101175.25;;;21.49;100.00
66164;BME280;52962;51.088;3.096;2023-06-26T01:09:02;101182.44;;;21.47;100.00
66164;BME280;52962;51.088;3.096;2023-06-26T01:11:30;101193.50;;;21.29;100.00
66164;BME280;52962;51.088;3.096;2023-06-26T01:14:00;101187.34;;;21.24;100.00
66164;BME280;52962;51.088;3.096;2023-06-26T01:16:29;101194.53;;;21.19;100.00
66164;BME280;52962;51.088;3.096;2023-06-26T01:18:58;101190.97;;;21.21;100.00
66164;BME280;52962;51.088;3.096;2023-06-26T01:21:27;101189.16;;;21.22;100.00
66164;BME280;52962;51.088;3.096;2023-06-26T01:24:07;101197.31;;;21.14;100.00
66164;BME280;52962;51.088;3.096;2023-06-26T01:26:40;101201.88;;;21.08;100.00
66164;BME280;52962;51.088;3.096;2023-06-26T01:29:15;101199.22;;;21.06;100.00
66164;BME280;52962;51.088;3.096;2023-06-26T01:31:45;101203.97;;;20.89;100.00
66164;BME280;52962;51.088;3.096;2023-06-26T01:34:17;101212.91;;;20.89;100.00
66164;BME280;52962;51.088;3.096;2023-06-26T01:36:48;101214.63;;;20.94;100.00
66164;BME280;52962;51.088;3.096;2023-06-26T01:39:18;101213.78;;;20.90;100.00
66164;BME280;52962;51.088;3.096;2023-06-26T01:41:48;101219.22;;;20.84;100.00
66164;BME280;52962;51.088;3.096;2023-06-26T01:44:26;101217.56;;;20.78;100.00
66164;BME280;52962;51.088;3.096;2023-06-26T01:47:00;101225.66;;;20.75;100.00
66164;BME280;52962;51.088;3.096;2023-06-26T01:49:36;101223.94;;;20.71;100.00
66164;BME280;52962;51.088;3.096;2023-06-26T01:52:10;101228.34;;;20.74;100.00
66164;BME280;52962;51.088;3.096;2023-06-26T01:54:47;101225.88;;;20.60;100.00
66164;BME280;52962;51.088;3.096;2023-06-26T01:57:18;101225.03;;;20.56;100.00
66164;BME280;52962;51.088;3.096;2023-06-26T01:59:51;101234.84;;;20.56;100.00
66164;BME280;52962;51.088;3.096;2023-06-26T02:02:20;101231.38;;;20.51;100.00
66164;BME280;52962;51.088;3.096;2023-06-26T02:04:48;101228.84;;;20.40;100.00
66164;BME280;52962;51.088;3.096;2023-06-26T02:07:16;101229.69;;;20.42;100.00
66164;BME280;52962;51.088;3.096;2023-06-26T02:09:44;101233.41;;;20.31;100.00
66164;BME280;52962;51.088;3.096;2023-06-26T02:12:13;101229.91;;;20.24;100.00
66164;BME280;52962;51.088;3.096;2023-06-26T02:14:42;101227.28;;;20.21;100.00
66164;BME280;52962;51.088;3.096;2023-06-26T02:17:10;101236.19;;;20.21;100.00
66164;BME280;52962;51.088;3.096;2023-06-26T02:19:39;101241.66;;;20.11;100.00
66164;BME280;52962;51.088;3.096;2023-06-26T02:22:12;101245.16;;;20.16;100.00
66164;BME280;52962;51.088;3.096;2023-06-26T02:24:40;101244.25;;;20.18;100.00
66164;BME280;52962;51.088;3.096;2023-06-26T02:27:08;101245.19;;;20.14;100.00
66164;BME280;52962;51.088;3.096;2023-06-26T02:29:37;101253.28;;;20.08;100.00
66164;BME280;52962;51.088;3.096;2023-06-26T02:32:08;101249.75;;;20.06;100.00
66164;BME280;52962;51.088;3.096;2023-06-26T02:34:36;101255.16;;;20.00;100.00
66164;BME280;52962;51.088;3.096;2023-06-26T02:37:05;101260.56;;;19.97;100.00
66164;BME280;52962;51.088;3.096;2023-06-26T02:39:34;101260.66;;;19.88;100.00
66164;BME280;52962;51.088;3.096;2023-06-26T02:42:05;101259.81;;;19.83;100.00
66164;BME280;52962;51.088;3.096;2023-06-26T02:44:33;101261.81;;;19.67;100.00
66164;BME280;52962;51.088;3.096;2023-06-26T02:47:02;101264.28;;;19.81;100.00
66164;BME280;52962;51.088;3.096;2023-06-26T02:49:33;101264.25;;;19.85;100.00
66164;BME280;52962;51.088;3.096;2023-06-26T02:52:01;101267.88;;;19.78;100.00
66164;BME280;52962;51.088;3.096;2023-06-26T02:54:30;101282.16;;;19.77;100.00
66164;BME280;52962;51.088;3.096;2023-06-26T02:57:03;101269.66;;;19.78;100.00
66164;BME280;52962;51.088;3.096;2023-06-26T02:59:32;101275.91;;;19.78;100.00
66164;BME280;52962;51.088;3.096;2023-06-26T03:02:01;101281.25;;;19.77;100.00
66164;BME280;52962;51.088;3.096;2023-06-26T03:04:36;101275.09;;;19.75;100.00
66164;BME280;52962;51.088;3.096;2023-06-26T03:07:08;101283.25;;;19.59;100.00
66164;BME280;52962;51.088;3.096;2023-06-26T03:09:38;101282.28;;;19.67;100.00
66164;BME280;52962;51.088;3.096;2023-06-26T03:12:08;101284.97;;;19.67;100.00
66164;BME280;52962;51.088;3.096;2023-06-26T03:14:36;101293.09;;;19.54;100.00
66164;BME280;52962;51.088;3.096;2023-06-26T03:17:04;101294.88;;;19.55;100.00
66164;BME280;52962;51.088;3.096;2023-06-26T03:19:37;101294.91;;;19.46;100.00
66164;BME280;52962;51.088;3.096;2023-06-26T03:22:18;101298.50;;;19.42;100.00
66164;BME280;52962;51.088;3.096;2023-06-26T03:24:47;101306.56;;;19.38;100.00
66164;BME280;52962;51.088;3.096;2023-06-26T03:27:16;101307.44;;;19.38;100.00
66164;BME280;52962;51.088;3.096;2023-06-26T03:29:47;101306.56;;;19.36;100.00
66164;BME280;52962;51.088;3.096;2023-06-26T03:32:16;101300.31;;;19.39;100.00
66164;BME280;52962;51.088;3.096;2023-06-26T03:34:46;101312.78;;;19.38;100.00
66164;BME280;52962;51.088;3.096;2023-06-26T03:37:14;101313.72;;;19.34;100.00
66164;BME280;52962;51.088;3.096;2023-06-26T03:39:43;101311.94;;;19.33;100.00
66164;BME280;52962;51.088;3.096;2023-06-26T03:42:11;101317.31;;;19.28;100.00
66164;BME280;52962;51.088;3.096;2023-06-26T03:44:39;101322.66;;;19.28;100.00
66164;BME280;52962;51.088;3.096;2023-06-26T03:47:08;101322.69;;;19.25;100.00
66164;BME280;52962;51.088;3.096;2023-06-26T03:49:36;101320.09;;;19.15;100.00
66164;BME280;52962;51.088;3.096;2023-06-26T03:52:06;101328.09;;;19.15;100.00
66164;BME280;52962;51.088;3.096;2023-06-26T03:54:34;101327.22;;;19.16;100.00
66164;BME280;52962;51.088;3.096;2023-06-26T03:57:02;101335.22;;;19.17;100.00
66164;BME280;52962;51.088;3.096;2023-06-26T03:59:30;101334.34;;;19.14;100.00
66164;BME280;52962;51.088;3.096;2023-06-26T04:01:58;101341.47;;;19.12;100.00
66164;BME280;52962;51.088;3.096;2023-06-26T04:04:27;101344.16;;;19.09;100.00
66164;BME280;52962;51.088;3.096;2023-06-26T04:06:55;101344.16;;;19.07;100.00
66164;BME280;52962;51.088;3.096;2023-06-26T04:09:25;101358.41;;;19.06;100.00
66164;BME280;52962;51.088;3.096;2023-06-26T04:11:53;101346.84;;;19.09;100.00
66164;BME280;52962;51.088;3.096;2023-06-26T04:14:22;101359.28;;;19.10;100.00
66164;BME280;52962;51.088;3.096;2023-06-26T04:16:50;101358.28;;;19.26;100.00
66164;BME280;52962;51.088;3.096;2023-06-26T04:19:18;101360.88;;;19.35;100.00
66164;BME280;52962;51.088;3.096;2023-06-26T04:21:46;101368.00;;;19.36;100.00
66164;BME280;52962;51.088;3.096;2023-06-26T04:24:15;101371.56;;;19.35;100.00
66164;BME280;52962;51.088;3.096;2023-06-26T04:26:45;101376.00;;;19.36;100.00
66164;BME280;52962;51.088;3.096;2023-06-26T04:29:13;101364.41;;;19.40;100.00
66164;BME280;52962;51.088;3.096;2023-06-26T04:31:41;101368.03;;;19.33;100.00
66164;BME280;52962;51.088;3.096;2023-06-26T04:34:13;101377.84;;;19.31;100.00
66164;BME280;52962;51.088;3.096;2023-06-26T04:36:42;101367.13;;;19.33;100.00
66164;BME280;52962;51.088;3.096;2023-06-26T04:39:13;101381.38;;;19.33;100.00
66164;BME280;52962;51.088;3.096;2023-06-26T04:41:41;101392.94;;;19.35;100.00
66164;BME280;52962;51.088;3.096;2023-06-26T04:44:11;101388.47;;;19.39;100.00
66164;BME280;52962;51.088;3.096;2023-06-26T04:46:39;101387.56;;;19.38;100.00
66164;BME280;52962;51.088;3.096;2023-06-26T04:49:08;101393.81;;;19.37;100.00
66164;BME280;52962;51.088;3.096;2023-06-26T04:51:36;101400.03;;;19.38;100.00
66164;BME280;52962;51.088;3.096;2023-06-26T04:54:07;101400.13;;;19.27;100.00
66164;BME280;52962;51.088;3.096;2023-06-26T04:56:35;101409.88;;;19.30;100.00
66164;BME280;52962;51.088;3.096;2023-06-26T04:59:06;101408.13;;;19.28;100.00
66164;BME280;52962;51.088;3.096;2023-06-26T05:01:41;101423.28;;;19.25;100.00
66164;BME280;52962;51.088;3.096;2023-06-26T05:04:10;101413.47;;;19.24;100.00
66164;BME280;52962;51.088;3.096;2023-06-26T05:06:38;101416.16;;;19.24;100.00
66164;BME280;52962;51.088;3.096;2023-06-26T05:09:07;101425.03;;;19.26;100.00
66164;BME280;52962;51.088;3.096;2023-06-26T05:11:35;101417.91;;;19.26;100.00
66164;BME280;52962;51.088;3.096;2023-06-26T05:14:03;101423.25;;;19.28;100.00
66164;BME280;52962;51.088;3.096;2023-06-26T05:16:34;101413.53;;;19.18;100.00
66164;BME280;52962;51.088;3.096;2023-06-26T05:19:04;101420.56;;;19.31;100.00
66164;BME280;52962;51.088;3.096;2023-06-26T05:21:32;101417.88;;;19.34;100.00
66164;BME280;52962;51.088;3.096;2023-06-26T05:24:02;101421.44;;;19.35;100.00
66164;BME280;52962;51.088;3.096;2023-06-26T05:26:31;101428.50;;;19.40;100.00
66164;BME280;52962;51.088;3.096;2023-06-26T05:29:00;101431.19;;;19.39;100.00
66164;BME280;52962;51.088;3.096;2023-06-26T05:31:31;101432.03;;;19.45;100.00
66164;BME280;52962;51.088;3.096;2023-06-26T05:34:04;101436.47;;;19.48;100.00
66164;BME280;52962;51.088;3.096;2023-06-26T05:36:33;101431.13;;;19.52;100.00
66164;BME280;52962;51.088;3.096;2023-06-26T05:39:02;101440.91;;;19.58;100.00
66164;BME280;52962;51.088;3.096;2023-06-26T05:41:31;101439.06;;;19.65;100.00
66164;BME280;52962;51.088;3.096;2023-06-26T05:43:59;101438.09;;;19.73;100.00
66164;BME280;52962;51.088;3.096;2023-06-26T05:46:28;101434.47;;;19.77;100.00
66164;BME280;52962;51.088;3.096;2023-06-26T05:48:56;101436.22;;;19.81;100.00
66164;BME280;52962;51.088;3.096;2023-06-26T05:51:26;101433.53;;;19.83;100.00
66164;BME280;52962;51.088;3.096;2023-06-26T05:53:55;101448.66;;;19.87;100.00
66164;BME280;52962;51.088;3.096;2023-06-26T05:56:24;101461.16;;;19.85;100.00
66164;BME280;52962;51.088;3.096;2023-06-26T05:58:52;101454.84;;;19.92;100.00
66164;BME280;52962;51.088;3.096;2023-06-26T06:01:21;101462.81;;;20.00;100.00
66164;BME280;52962;51.088;3.096;2023-06-26T06:03:49;101462.72;;;20.09;100.00
66164;BME280;52962;51.088;3.096;2023-06-26T06:06:17;101466.22;;;20.15;100.00
66164;BME280;52962;51.088;3.096;2023-06-26T06:08:47;101459.91;;;20.24;100.00
66164;BME280;52962;51.088;3.096;2023-06-26T06:11:15;101465.22;;;20.29;100.00
66164;BME280;52962;51.088;3.096;2023-06-26T06:13:43;101468.69;;;20.43;100.00
66164;BME280;52962;51.088;3.096;2023-06-26T06:16:11;101480.25;;;20.45;100.00
66164;BME280;52962;51.088;3.096;2023-06-26T06:18:39;101478.34;;;20.56;100.00
66164;BME280;52962;51.088;3.096;2023-06-26T06:21:08;101482.72;;;20.63;100.00
66164;BME280;52962;51.088;3.096;2023-06-26T06:23:35;101486.22;;;20.71;100.00
66164;BME280;52962;51.088;3.096;2023-06-26T06:26:06;101486.00;;;20.86;100.00
66164;BME280;52962;51.088;3.096;2023-06-26T06:28:34;101499.13;;;21.08;100.00
66164;BME280;52962;51.088;3.096;2023-06-26T06:31:02;101496.97;;;21.39;100.00
66164;BME280;52962;51.088;3.096;2023-06-26T06:33:31;101486.78;;;21.64;100.00
66164;BME280;52962;51.088;3.096;2023-06-26T06:35:59;101500.69;;;21.87;100.00
66164;BME280;52962;51.088;3.096;2023-06-26T06:38:27;101508.59;;;21.96;100.00
66164;BME280;52962;51.088;3.096;2023-06-26T06:40:55;101505.16;;;21.88;100.00
66164;BME280;52962;51.088;3.096;2023-06-26T06:43:24;101512.13;;;22.00;100.00
66164;BME280;52962;51.088;3.096;2023-06-26T06:45:53;101512.84;;;22.12;100.00
66164;BME280;52962;51.088;3.096;2023-06-26T06:48:21;101504.59;;;22.25;100.00
66164;BME280;52962;51.088;3.096;2023-06-26T06:50:49;101503.66;;;22.27;100.00
66164;BME280;52962;51.088;3.096;2023-06-26T06:53:17;101507.16;;;22.31;100.00
66164;BME280;52962;51.088;3.096;2023-06-26T06:55:47;101519.50;;;22.41;100.00
66164;BME280;52962;51.088;3.096;2023-06-26T06:58:15;101519.09;;;22.64;100.00
66164;BME280;52962;51.088;3.096;2023-06-26T07:00:47;101526.84;;;22.80;100.00
66164;BME280;52962;51.088;3.096;2023-06-26T07:03:15;101514.22;;;22.86;100.00
66164;BME280;52962;51.088;3.096;2023-06-26T07:05:44;101529.59;;;22.76;100.00
66164;BME280;52962;51.088;3.096;2023-06-26T07:08:12;101538.19;;;22.47;100.00
66164;BME280;52962;51.088;3.096;2023-06-26T07:10:41;101536.06;;;22.66;100.00
66164;BME280;52962;51.088;3.096;2023-06-26T07:13:09;101537.72;;;22.73;100.00
66164;BME280;52962;51.088;3.096;2023-06-26T07:15:37;101532.22;;;22.80;100.00
66164;BME280;52962;51.088;3.096;2023-06-26T07:18:07;101539.28;;;22.86;100.00
66164;BME280;52962;51.088;3.096;2023-06-26T07:20:36;101535.94;;;23.16;100.00
66164;BME280;52962;51.088;3.096;2023-06-26T07:23:04;101543.69;;;22.89;100.00
66164;BME280;52962;51.088;3.096;2023-06-26T07:25:33;101545.53;;;23.30;100.00
66164;BME280;52962;51.088;3.096;2023-06-26T07:28:01;101540.72;;;23.45;100.00
66164;BME280;52962;51.088;3.096;2023-06-26T07:30:30;101538.13;;;23.41;100.00
66164;BME280;52962;51.088;3.096;2023-06-26T07:32:58;101555.19;;;22.95;100.00
66164;BME280;52962;51.088;3.096;2023-06-26T07:35:29;101546.34;;;23.33;100.00
66164;BME280;52962;51.088;3.096;2023-06-26T07:37:57;101556.38;;;23.25;100.00
66164;BME280;52962;51.088;3.096;2023-06-26T07:40:25;101552.59;;;23.77;100.00
66164;BME280;52962;51.088;3.096;2023-06-26T07:42:54;101556.97;;;24.18;100.00
66164;BME280;52962;51.088;3.096;2023-06-26T07:45:27;101563.31;;;23.78;100.00
66164;BME280;52962;51.088;3.096;2023-06-26T07:47:55;101553.06;;;23.94;100.00
66164;BME280;52962;51.088;3.096;2023-06-26T07:50:24;101554.53;;;24.07;100.00
66164;BME280;52962;51.088;3.096;2023-06-26T07:52:54;101560.47;;;24.22;100.00
66164;BME280;52962;51.088;3.096;2023-06-26T07:55:22;101570.78;;;24.03;100.00
66164;BME280;52962;51.088;3.096;2023-06-26T07:57:50;101574.91;;;24.18;100.00
66164;BME280;52962;51.088;3.096;2023-06-26T08:00:19;101567.66;;;24.21;100.00
66164;BME280;52962;51.088;3.096;2023-06-26T08:02:47;101570.03;;;23.96;100.00
66164;BME280;52962;51.088;3.096;2023-06-26T08:05:15;101586.25;;;23.93;100.00
66164;BME280;52962;51.088;3.096;2023-06-26T08:07:44;101580.97;;;23.90;100.00
66164;BME280;52962;51.088;3.096;2023-06-26T08:10:13;101569.69;;;24.11;100.00
66164;BME280;52962;51.088;3.096;2023-06-26T08:12:42;101574.25;;;24.45;100.00
66164;BME280;52962;51.088;3.096;2023-06-26T08:15:12;101579.56;;;24.48;100.00
66164;BME280;52962;51.088;3.096;2023-06-26T08:17:40;101578.91;;;24.38;100.00
66164;BME280;52962;51.088;3.096;2023-06-26T08:20:09;101579.66;;;24.45;100.00
66164;BME280;52962;51.088;3.096;2023-06-26T08:22:37;101589.22;;;24.57;100.00
66164;BME280;52962;51.088;3.096;2023-06-26T08:25:06;101581.72;;;24.69;100.00
66164;BME280;52962;51.088;3.096;2023-06-26T08:27:35;101585.50;;;24.95;100.00
66164;BME280;52962;51.088;3.096;2023-06-26T08:30:04;101588.88;;;24.35;100.00
66164;BME280;52962;51.088;3.096;2023-06-26T08:32:33;101594.66;;;24.55;100.00
66164;BME280;52962;51.088;3.096;2023-06-26T08:35:01;101592.59;;;24.99;100.00
66164;BME280;52962;51.088;3.096;2023-06-26T08:37:29;101597.22;;;24.94;100.00
66164;BME280;52962;51.088;3.096;2023-06-26T08:39:59;101593.72;;;24.19;100.00
66164;BME280;52962;51.088;3.096;2023-06-26T08:42:27;101614.66;;;24.06;100.00
66164;BME280;52962;51.088;3.096;2023-06-26T08:44:57;101616.00;;;24.26;100.00
66164;BME280;52962;51.088;3.096;2023-06-26T08:47:30;101596.28;;;24.24;100.00
66164;BME280;52962;51.088;3.096;2023-06-26T08:50:04;101600.41;;;24.75;100.00
66164;BME280;52962;51.088;3.096;2023-06-26T08:52:37;101605.94;;;24.69;100.00
66164;BME280;52962;51.088;3.096;2023-06-26T08:55:09;101610.53;;;25.00;100.00
66164;BME280;52962;51.088;3.096;2023-06-26T08:57:38;101604.19;;;24.33;100.00
66164;BME280;52962;51.088;3.096;2023-06-26T09:00:10;101601.09;;;24.84;100.00
66164;BME280;52962;51.088;3.096;2023-06-26T09:02:41;101596.41;;;25.23;100.00
66164;BME280;52962;51.088;3.096;2023-06-26T09:05:11;101615.81;;;24.70;100.00
66164;BME280;52962;51.088;3.096;2023-06-26T09:07:40;101610.53;;;24.30;100.00
66164;BME280;52962;51.088;3.096;2023-06-26T09:10:09;101610.41;;;24.70;100.00
66164;BME280;52962;51.088;3.096;2023-06-26T09:12:38;101612.44;;;24.24;100.00
66164;BME280;52962;51.088;3.096;2023-06-26T09:15:08;101611.69;;;24.90;100.00
66164;BME280;52962;51.088;3.096;2023-06-26T09:17:39;101607.56;;;25.41;100.00
66164;BME280;52962;51.088;3.096;2023-06-26T09:20:09;101617.28;;;25.78;100.00
66164;BME280;52962;51.088;3.096;2023-06-26T09:22:42;101622.72;;;25.77;100.00
66164;BME280;52962;51.088;3.096;2023-06-26T09:25:11;101625.59;;;26.00;100.00
66164;BME280;52962;51.088;3.096;2023-06-26T09:27:42;101629.38;;;25.94;100.00
66164;BME280;52962;51.088;3.096;2023-06-26T09:30:16;101634.16;;;25.54;100.00
66164;BME280;52962;51.088;3.096;2023-06-26T09:32:46;101630.16;;;25.37;100.00
66164;BME280;52962;51.088;3.096;2023-06-26T09:35:14;101636.81;;;25.24;100.00
66164;BME280;52962;51.088;3.096;2023-06-26T09:37:43;101627.63;;;25.31;100.00
66164;BME280;52962;51.088;3.096;2023-06-26T09:40:13;101625.00;;;25.59;100.00
66164;BME280;52962;51.088;3.096;2023-06-26T09:42:41;101615.78;;;25.37;100.00
66164;BME280;52962;51.088;3.096;2023-06-26T09:45:19;101639.56;;;25.85;100.00
66164;BME280;52962;51.088;3.096;2023-06-26T09:47:48;101647.38;;;25.63;100.00
66164;BME280;52962;51.088;3.096;2023-06-26T09:50:23;101642.25;;;25.23;97.59
66164;BME280;52962;51.088;3.096;2023-06-26T09:52:54;101648.88;;;24.75;100.00
66164;BME280;52962;51.088;3.096;2023-06-26T09:55:23;101649.78;;;25.10;100.00
66164;BME280;52962;51.088;3.096;2023-06-26T09:57:52;101637.09;;;25.14;100.00
66164;BME280;52962;51.088;3.096;2023-06-26T10:00:25;101628.03;;;25.16;100.00
66164;BME280;52962;51.088;3.096;2023-06-26T10:02:54;101651.97;;;25.28;100.00
66164;BME280;52962;51.088;3.096;2023-06-26T10:05:22;101648.31;;;25.31;100.00
66164;BME280;52962;51.088;3.096;2023-06-26T10:07:51;101657.41;;;25.27;100.00
66164;BME280;52962;51.088;3.096;2023-06-26T10:10:20;101663.00;;;25.19;100.00
66164;BME280;52962;51.088;3.096;2023-06-26T10:12:55;101669.81;;;25.00;95.00
66164;BME280;52962;51.088;3.096;2023-06-26T10:15:28;101657.50;;;25.24;93.38
66164;BME280;52962;51.088;3.096;2023-06-26T10:17:57;101653.78;;;25.28;99.89
66164;BME280;52962;51.088;3.096;2023-06-26T10:20:25;101646.44;;;25.33;98.29
66164;BME280;52962;51.088;3.096;2023-06-26T10:22:55;101649.34;;;25.25;100.00
66164;BME280;52962;51.088;3.096;2023-06-26T10:25:26;101658.19;;;24.98;95.63
66164;BME280;52962;51.088;3.096;2023-06-26T10:27:58;101653.41;;;25.09;100.00
66164;BME280;52962;51.088;3.096;2023-06-26T10:30:31;101646.16;;;25.11;100.00
66164;BME280;52962;51.088;3.096;2023-06-26T10:33:02;101655.75;;;25.21;100.00
66164;BME280;52962;51.088;3.096;2023-06-26T10:35:30;101660.06;;;25.28;100.00
66164;BME280;52962;51.088;3.096;2023-06-26T10:38:02;101658.97;;;25.35;100.00
66164;BME280;52962;51.088;3.096;2023-06-26T10:40:40;101671.09;;;25.52;98.94
66164;BME280;52962;51.088;3.096;2023-06-26T10:43:10;101671.00;;;25.22;99.47
66164;BME280;52962;51.088;3.096;2023-06-26T10:45:45;101668.06;;;25.31;100.00
66164;BME280;52962;51.088;3.096;2023-06-26T10:48:15;101681.78;;;25.22;100.00
66164;BME280;52962;51.088;3.096;2023-06-26T10:50:43;101677.59;;;24.76;100.00
66164;BME280;52962;51.088;3.096;2023-06-26T10:53:16;101681.97;;;24.81;100.00
66164;BME280;52962;51.088;3.096;2023-06-26T10:55:55;101680.22;;;24.80;91.97
66164;BME280;52962;51.088;3.096;2023-06-26T10:58:29;101688.41;;;24.75;87.24
66164;BME280;52962;51.088;3.096;2023-06-26T11:01:16;101686.81;;;24.66;95.50
66164;BME280;52962;51.088;3.096;2023-06-26T11:03:47;101689.69;;;24.96;97.21
66164;BME280;52962;51.088;3.096;2023-06-26T11:06:20;101678.41;;;25.14;99.54
66164;BME280;52962;51.088;3.096;2023-06-26T11:08:50;101678.16;;;25.23;97.97
66164;BME280;52962;51.088;3.096;2023-06-26T11:11:21;101687.03;;;25.28;98.31
66164;BME280;52962;51.088;3.096;2023-06-26T11:13:50;101696.78;;;25.32;96.33
66164;BME280;52962;51.088;3.096;2023-06-26T11:16:19;101686.53;;;25.13;99.13
66164;BME280;52962;51.088;3.096;2023-06-26T11:18:49;101691.59;;;24.91;94.25
66164;BME280;52962;51.088;3.096;2023-06-26T11:21:20;101694.59;;;25.14;99.22
66164;BME280;52962;51.088;3.096;2023-06-26T11:23:49;101690.47;;;25.33;98.30
66164;BME280;52962;51.088;3.096;2023-06-26T11:26:18;101691.00;;;25.14;99.36
66164;BME280;52962;51.088;3.096;2023-06-26T11:28:50;101694.34;;;24.89;100.00
66164;BME280;52962;51.088;3.096;2023-06-26T11:31:27;101694.56;;;25.16;100.00
66164;BME280;52962;51.088;3.096;2023-06-26T11:33:57;101688.63;;;25.01;100.00
66164;BME280;52962;51.088;3.096;2023-06-26T11:36:26;101701.75;;;24.80;98.06
66164;BME280;52962;51.088;3.096;2023-06-26T11:38:55;101700.28;;;25.02;100.00
66164;BME280;52962;51.088;3.096;2023-06-26T11:41:25;101690.47;;;25.33;100.00
66164;BME280;52962;51.088;3.096;2023-06-26T11:43:54;101696.41;;;25.14;100.00
66164;BME280;52962;51.088;3.096;2023-06-26T11:46:22;101699.69;;;24.91;100.00
66164;BME280;52962;51.088;3.096;2023-06-26T11:48:52;101696.78;;;24.63;100.00
66164;BME280;52962;51.088;3.096;2023-06-26T11:51:21;101715.09;;;24.49;100.00
66164;BME280;52962;51.088;3.096;2023-06-26T11:53:49;101708.53;;;24.60;100.00
66164;BME280;52962;51.088;3.096;2023-06-26T11:56:19;101713.31;;;24.85;100.00
66164;BME280;52962;51.088;3.096;2023-06-26T11:58:56;101735.00;;;24.78;100.00
66164;BME280;52962;51.088;3.096;2023-06-26T12:01:24;101722.75;;;25.02;100.00
66164;BME280;52962;51.088;3.096;2023-06-26T12:04:00;101727.41;;;24.96;99.27
66164;BME280;52962;51.088;3.096;2023-06-26T12:06:31;101730.03;;;24.99;100.00
66164;BME280;52962;51.088;3.096;2023-06-26T12:09:01;101713.81;;;25.00;96.13
66164;BME280;52962;51.088;3.096;2023-06-26T12:11:30;101722.47;;;25.13;98.31
66164;BME280;52962;51.088;3.096;2023-06-26T12:14:00;101726.78;;;25.20;98.34
66164;BME280;52962;51.088;3.096;2023-06-26T12:16:29;101732.47;;;25.08;95.05
66164;BME280;52962;51.088;3.096;2023-06-26T12:19:00;101721.69;;;25.08;96.09
66164;BME280;52962;51.088;3.096;2023-06-26T12:21:44;101731.44;;;24.78;89.64
66164;BME280;52962;51.088;3.096;2023-06-26T12:24:14;101722.41;;;24.81;91.98
66164;BME280;52962;51.088;3.096;2023-06-26T12:26:43;101724.50;;;25.03;92.57
66164;BME280;52962;51.088;3.096;2023-06-26T12:29:13;101719.47;;;24.90;91.39
66164;BME280;52962;51.088;3.096;2023-06-26T12:31:42;101730.56;;;25.13;95.47
66164;BME280;52962;51.088;3.096;2023-06-26T12:34:13;101722.63;;;25.07;89.10
66164;BME280;52962;51.088;3.096;2023-06-26T12:36:45;101712.03;;;24.99;87.22
66164;BME280;52962;51.088;3.096;2023-06-26T12:39:16;101717.00;;;24.43;87.14
66164;BME280;52962;51.088;3.096;2023-06-26T12:41:46;101727.63;;;24.87;90.72
66164;BME280;52962;51.088;3.096;2023-06-26T12:44:19;101729.94;;;24.66;85.21
66164;BME280;52962;51.088;3.096;2023-06-26T12:46:48;101719.88;;;24.73;93.73
66164;BME280;52962;51.088;3.096;2023-06-26T12:49:18;101709.63;;;24.89;92.28
66164;BME280;52962;51.088;3.096;2023-06-26T12:51:58;101735.09;;;24.75;89.48
66164;BME280;52962;51.088;3.096;2023-06-26T12:54:26;101724.72;;;24.96;94.25